Time;durP1;ratioP1;P1;durP2;ratioP2;P2;SDS_P1;SDS_P2;PMS_P1;PMS_P2;Temp;Humidity;BMP_temperature;BMP_pressure;BME280_temperature;BME280_humidity;BME280_pressure;Samples;Min_cycle;Max_cycle;Signal;HPM_P1;HPM_P2
2024/01/19 00:00:11;;;;;;;;;56.50;43.50;;;;;-144.62;100.00;60556.56;5034371;28;45568;-77
2024/01/19 00:02:36;;;;;;;;;49.75;45.50;;;;;-144.62;100.00;60556.56;5034395;28;46682;-77
2024/01/19 00:05:03;;;;;;;;;47.50;42.50;;;;;-144.62;100.00;60556.56;5037984;28;45378;-77
2024/01/19 00:07:29;;;;;;;;;55.75;44.25;;;;;-144.62;100.00;60556.56;5033708;28;45390;-77
2024/01/19 00:09:54;;;;;;;;;42.00;40.25;;;;;-144.62;100.00;60556.56;5037289;28;45526;-75
2024/01/19 00:12:20;;;;;;;;;46.00;43.00;;;;;-144.62;100.00;60556.56;5037854;28;46037;-77
2024/01/19 00:14:45;;;;;;;;;49.00;42.25;;;;;-144.62;100.00;60556.56;5034334;28;45506;-75
2024/01/19 00:17:10;;;;;;;;;51.50;45.00;;;;;-144.62;100.00;60556.56;5051489;28;45419;-77
2024/01/19 00:19:36;;;;;;;;;46.25;42.25;;;;;-144.62;100.00;60556.56;5031318;28;45322;-77
2024/01/19 00:22:01;;;;;;;;;45.75;42.75;;;;;-144.62;100.00;60556.56;5038428;27;46726;-77
2024/01/19 00:24:26;;;;;;;;;45.75;38.50;;;;;-144.62;100.00;60556.56;5049215;28;45340;-77
2024/01/19 00:26:54;;;;;;;;;43.50;37.00;;;;;-144.62;100.00;60556.56;5037315;28;45478;-77
2024/01/19 00:29:19;;;;;;;;;41.00;39.00;;;;;-144.62;100.00;60556.56;5033141;28;45535;-77
2024/01/19 00:31:46;;;;;;;;;46.25;37.00;;;;;-144.62;100.00;60556.56;5037248;28;48306;-77
2024/01/19 00:34:15;;;;;;;;;37.00;35.00;;;;;-144.62;100.00;60556.56;5036216;28;45434;-77
2024/01/19 00:36:40;;;;;;;;;53.00;42.75;;;;;-144.62;100.00;60556.56;5116495;27;45326;-77
2024/01/19 00:39:06;;;;;;;;;41.00;35.00;;;;;-144.62;100.00;60556.56;5036475;28;45177;-77
2024/01/19 00:41:31;;;;;;;;;43.75;36.00;;;;;-144.62;100.00;60556.56;5031551;28;46596;-77
2024/01/19 00:43:57;;;;;;;;;41.00;34.00;;;;;-144.62;100.00;60556.56;5033912;28;45234;-77
2024/01/19 00:46:23;;;;;;;;;42.00;32.00;;;;;-144.62;100.00;60556.56;5029439;28;45354;-77
2024/01/19 00:48:48;;;;;;;;;47.00;42.75;;;;;-144.62;100.00;60556.56;5035927;28;45367;-77
2024/01/19 00:51:15;;;;;;;;;43.50;37.25;;;;;-144.62;100.00;60556.56;5029502;28;46176;-77
2024/01/19 00:53:40;;;;;;;;;40.75;35.25;;;;;-144.62;100.00;60556.56;5032990;28;45521;-77
2024/01/19 00:56:08;;;;;;;;;44.00;39.00;;;;;-144.62;100.00;60556.56;5027438;27;45250;-77
2024/01/19 00:58:34;;;;;;;;;49.50;37.75;;;;;-144.62;100.00;60556.56;5026737;27;45488;-76
2024/01/19 01:00:59;;;;;;;;;50.00;37.25;;;;;-144.62;100.00;60556.56;5033331;28;46915;-77
2024/01/19 01:03:27;;;;;;;;;51.25;43.25;;;;;-144.62;100.00;60556.56;5036171;28;45367;-77
2024/01/19 01:05:57;;;;;;;;;43.00;41.25;;;;;-144.62;100.00;60556.56;4967443;28;2067591;-77
2024/01/19 01:08:30;;;;;;;;;44.00;34.50;;;;;-144.62;100.00;60556.56;5038064;27;45376;-75
2024/01/19 01:10:55;;;;;;;;;51.00;43.25;;;;;-144.62;100.00;60556.56;5028635;28;46163;-75
2024/01/19 01:13:24;;;;;;;;;49.00;42.50;;;;;-144.62;100.00;60556.56;5037880;28;45508;-77
2024/01/19 01:15:49;;;;;;;;;56.50;44.75;;;;;-144.62;100.00;60556.56;5028513;28;45446;-77
2024/01/19 01:18:16;;;;;;;;;48.75;44.00;;;;;-144.62;100.00;60556.56;5037597;28;45376;-76
2024/01/19 01:20:42;;;;;;;;;43.75;39.50;;;;;-144.62;100.00;60556.56;5027382;28;46484;-77
2024/01/19 01:23:08;;;;;;;;;58.00;46.75;;;;;-144.62;100.00;60556.56;5039107;28;45304;-77
2024/01/19 01:25:33;;;;;;;;;61.50;46.75;;;;;-144.62;100.00;60556.56;5031819;28;52820;-76
2024/01/19 01:27:58;;;;;;;;;63.25;48.75;;;;;-144.62;100.00;60556.56;5039886;28;45412;-77
2024/01/19 01:30:24;;;;;;;;;65.25;49.25;;;;;-144.62;100.00;60556.56;5031492;28;48637;-77
2024/01/19 01:32:49;;;;;;;;;50.25;42.50;;;;;-144.62;100.00;60556.56;5028241;28;45356;-76
2024/01/19 01:35:14;;;;;;;;;64.75;51.25;;;;;-144.62;100.00;60556.56;5038122;27;45554;-76
2024/01/19 01:37:40;;;;;;;;;53.50;46.00;;;;;-144.62;100.00;60556.56;5029987;28;45865;-76
2024/01/19 01:40:07;;;;;;;;;61.25;51.25;;;;;-144.62;100.00;60556.56;5034576;28;47332;-76
2024/01/19 01:42:32;;;;;;;;;53.25;48.25;;;;;-144.62;100.00;60556.56;5029773;28;45383;-76
2024/01/19 01:45:00;;;;;;;;;55.25;45.00;;;;;-144.62;100.00;60556.56;5033475;27;45501;-76
2024/01/19 01:47:26;;;;;;;;;60.25;50.25;;;;;-144.62;100.00;60556.56;5032322;28;45331;-76
2024/01/19 01:49:52;;;;;;;;;56.25;47.75;;;;;-144.62;100.00;60556.56;5035516;28;48189;-76
2024/01/19 01:52:18;;;;;;;;;58.25;45.50;;;;;-144.62;100.00;60556.56;5032961;28;45264;-76
2024/01/19 01:54:44;;;;;;;;;54.75;47.00;;;;;-144.62;100.00;60556.56;5031209;27;45454;-76
2024/01/19 01:57:09;;;;;;;;;61.50;52.00;;;;;-144.62;100.00;60556.56;5033319;27;45657;-76
2024/01/19 01:59:35;;;;;;;;;65.25;49.75;;;;;-144.62;100.00;60556.56;5036020;27;46603;-76
2024/01/19 02:02:01;;;;;;;;;53.75;47.25;;;;;-144.62;100.00;60556.56;5035465;28;45657;-76
2024/01/19 02:04:28;;;;;;;;;61.50;51.00;;;;;-144.62;100.00;60556.56;5032788;27;45345;-76
2024/01/19 02:06:53;;;;;;;;;63.25;47.75;;;;;-144.62;100.00;60556.56;5039089;28;45406;-76
2024/01/19 02:09:19;;;;;;;;;43.50;37.00;;;;;-144.62;100.00;60556.56;5037561;28;45415;-77
2024/01/19 02:11:44;;;;;;;;;64.75;53.25;;;;;-144.62;100.00;60556.56;5034057;28;46750;-76
2024/01/19 02:14:10;;;;;;;;;58.25;48.00;;;;;-144.62;100.00;60556.56;5036654;27;45352;-76
2024/01/19 02:16:36;;;;;;;;;59.50;50.50;;;;;-144.62;100.00;60556.56;5042232;28;45155;-76
2024/01/19 02:19:01;;;;;;;;;67.50;49.50;;;;;-144.62;100.00;60556.56;5037704;28;46538;-76
2024/01/19 02:21:27;;;;;;;;;56.00;46.50;;;;;-144.62;100.00;60556.56;5031657;28;45408;-76
2024/01/19 02:24:04;;;;;;;;;64.25;52.50;;;;;-144.62;100.00;60556.56;5038807;28;45349;-76
2024/01/19 02:26:31;;;;;;;;;56.25;48.25;;;;;-144.62;100.00;60556.56;5039128;27;45460;-76
2024/01/19 02:28:56;;;;;;;;;50.50;46.75;;;;;-144.62;100.00;60556.56;5037295;27;45273;-76
2024/01/19 02:31:21;;;;;;;;;65.50;49.75;;;;;-144.62;100.00;60556.56;5039776;28;54905;-76
2024/01/19 02:33:47;;;;;;;;;68.75;51.00;;;;;-144.62;100.00;60556.56;5039343;28;45378;-76
2024/01/19 02:36:12;;;;;;;;;64.50;49.25;;;;;-144.62;100.00;60556.56;5030561;28;45470;-76
2024/01/19 02:38:38;;;;;;;;;60.00;47.50;;;;;-144.62;100.00;60556.56;5038242;28;46589;-76
2024/01/19 02:41:03;;;;;;;;;53.00;47.25;;;;;-144.62;100.00;60556.56;5035347;28;45558;-76
2024/01/19 02:43:28;;;;;;;;;68.50;50.00;;;;;-144.62;100.00;60556.56;5036622;28;45330;-76
2024/01/19 02:45:54;;;;;;;;;59.50;45.25;;;;;-144.62;100.00;60556.56;5032286;28;45292;-76
2024/01/19 02:48:19;;;;;;;;;57.50;48.25;;;;;-144.62;100.00;60556.56;5038032;28;51208;-76
2024/01/19 02:50:44;;;;;;;;;60.50;46.25;;;;;-144.62;100.00;60556.56;5032055;28;45399;-75
2024/01/19 02:53:10;;;;;;;;;68.50;52.50;;;;;-144.62;100.00;60556.56;5039164;28;45464;-75
2024/01/19 02:55:35;;;;;;;;;57.75;44.25;;;;;-144.62;100.00;60556.56;5039104;28;45575;-76
2024/01/19 02:58:00;;;;;;;;;62.00;49.50;;;;;-144.62;100.00;60556.56;5041148;28;45987;-75
2024/01/19 03:00:26;;;;;;;;;60.00;49.25;;;;;-144.62;100.00;60556.56;5034219;28;45302;-76
2024/01/19 03:02:51;;;;;;;;;64.50;52.25;;;;;-144.62;100.00;60556.56;5037453;28;45574;-75
2024/01/19 03:05:16;;;;;;;;;66.75;49.50;;;;;-144.62;100.00;60556.56;5035963;28;45503;-76
2024/01/19 03:07:42;;;;;;;;;62.25;48.00;;;;;-144.62;100.00;60556.56;5054038;28;52986;-76
2024/01/19 03:10:07;;;;;;;;;57.25;48.75;;;;;-144.62;100.00;60556.56;5030239;28;45321;-76
2024/01/19 03:12:33;;;;;;;;;59.75;51.25;;;;;-144.62;100.00;60556.56;5038358;28;45473;-76
2024/01/19 03:14:58;;;;;;;;;57.25;46.75;;;;;-144.62;100.00;60556.56;5031821;28;45372;-76
2024/01/19 03:17:23;;;;;;;;;61.50;48.75;;;;;-144.62;100.00;60556.56;5036947;28;45594;-76
2024/01/19 03:19:50;;;;;;;;;57.25;50.25;;;;;-144.62;100.00;60556.56;5034289;28;45314;-76
2024/01/19 03:22:15;;;;;;;;;65.25;49.25;;;;;-144.62;100.00;60556.56;5037156;28;45409;-76
2024/01/19 03:24:40;;;;;;;;;61.00;49.50;;;;;-144.62;100.00;60556.56;5033561;28;45439;-76
2024/01/19 03:27:06;;;;;;;;;55.25;43.00;;;;;-144.62;100.00;60556.56;5044754;28;46054;-76
2024/01/19 03:29:31;;;;;;;;;59.25;48.00;;;;;-144.62;100.00;60556.56;5034770;28;45313;-76
2024/01/19 03:31:56;;;;;;;;;54.00;49.00;;;;;-144.62;100.00;60556.56;5029992;28;44717;-76
2024/01/19 03:34:22;;;;;;;;;48.25;43.75;;;;;-144.62;100.00;60556.56;5036890;28;45360;-76
2024/01/19 03:36:47;;;;;;;;;66.75;51.25;;;;;-144.62;100.00;60556.56;5032014;28;45373;-76
2024/01/19 03:39:13;;;;;;;;;61.50;50.25;;;;;-144.62;100.00;60556.56;5038386;28;46117;-76
2024/01/19 03:41:38;;;;;;;;;71.25;51.25;;;;;-144.62;100.00;60556.56;5032946;28;45341;-76
2024/01/19 03:44:03;;;;;;;;;68.50;52.50;;;;;-144.62;100.00;60556.56;5036210;28;45245;-76
2024/01/19 03:46:29;;;;;;;;;64.50;52.50;;;;;-144.62;100.00;60556.56;5032465;28;46322;-76
2024/01/19 03:48:54;;;;;;;;;56.25;47.50;;;;;-144.62;100.00;60556.56;5037697;27;45533;-76
2024/01/19 03:51:19;;;;;;;;;62.50;48.50;;;;;-144.62;100.00;60556.56;5032454;27;45459;-76
2024/01/19 03:53:45;;;;;;;;;63.00;51.00;;;;;-144.62;100.00;60556.56;5038600;28;45307;-75
2024/01/19 03:56:10;;;;;;;;;64.50;48.50;;;;;-144.62;100.00;60556.56;5030427;28;45633;-76
2024/01/19 03:58:36;;;;;;;;;40.75;33.00;;;;;-144.62;100.00;60556.56;5028751;28;45341;-76
2024/01/19 04:01:04;;;;;;;;;56.50;49.00;;;;;-144.62;100.00;60556.56;5036352;28;45212;-76
2024/01/19 04:03:30;;;;;;;;;50.50;42.00;;;;;-144.62;100.00;60556.56;5039476;28;45228;-75
2024/01/19 04:05:55;;;;;;;;;61.75;52.50;;;;;-144.62;100.00;60556.56;5029271;27;45499;-76
2024/01/19 04:08:21;;;;;;;;;64.00;52.00;;;;;-144.62;100.00;60556.56;5038101;28;45297;-76
2024/01/19 04:10:46;;;;;;;;;65.00;50.25;;;;;-144.62;100.00;60556.56;5029598;28;45405;-76
2024/01/19 04:13:12;;;;;;;;;66.75;52.50;;;;;-144.62;100.00;60556.56;5040712;28;45321;-76
2024/01/19 04:15:37;;;;;;;;;69.25;52.00;;;;;-144.62;100.00;60556.56;5025605;28;45369;-75
2024/01/19 04:18:02;;;;;;;;;57.25;49.75;;;;;-144.62;100.00;60556.56;5040975;27;45458;-76
2024/01/19 04:20:28;;;;;;;;;63.75;50.00;;;;;-144.62;100.00;60556.56;5028434;28;45287;-76
2024/01/19 04:22:53;;;;;;;;;66.25;49.75;;;;;-144.62;100.00;60556.56;5039047;27;45312;-76
2024/01/19 04:25:18;;;;;;;;;70.50;56.25;;;;;-144.62;100.00;60556.56;5040690;28;52364;-76
2024/01/19 04:27:44;;;;;;;;;67.75;56.75;;;;;-144.62;100.00;60556.56;5028721;28;45368;-76
2024/01/19 04:30:09;;;;;;;;;63.50;52.00;;;;;-144.62;100.00;60556.56;5033531;27;45319;-75
2024/01/19 04:32:34;;;;;;;;;66.25;53.75;;;;;-144.62;100.00;60556.56;5032401;28;46442;-75
2024/01/19 04:35:00;;;;;;;;;74.00;57.75;;;;;-144.62;100.00;60556.56;5030989;28;51090;-75
2024/01/19 04:37:25;;;;;;;;;69.00;54.00;;;;;-144.62;100.00;60556.56;5030555;28;45265;-75
2024/01/19 04:39:51;;;;;;;;;62.00;50.50;;;;;-144.62;100.00;60556.56;5034413;28;45852;-75
2024/01/19 04:42:16;;;;;;;;;69.75;53.00;;;;;-144.62;100.00;60556.56;5039075;28;45703;-75
2024/01/19 04:44:41;;;;;;;;;57.50;49.50;;;;;-144.62;100.00;60556.56;5037361;28;45590;-75
2024/01/19 04:47:07;;;;;;;;;60.75;49.00;;;;;-144.62;100.00;60556.56;5037766;28;45414;-75
2024/01/19 04:49:32;;;;;;;;;67.00;54.50;;;;;-144.62;100.00;60556.56;5032931;28;45452;-75
2024/01/19 04:51:57;;;;;;;;;64.00;53.25;;;;;-144.62;100.00;60556.56;5038621;28;45215;-75
2024/01/19 04:54:23;;;;;;;;;61.75;48.50;;;;;-144.62;100.00;60556.56;5048036;28;47300;-75
2024/01/19 04:56:48;;;;;;;;;62.00;52.00;;;;;-144.62;100.00;60556.56;5035145;27;45216;-75
2024/01/19 04:59:13;;;;;;;;;71.75;54.25;;;;;-144.62;100.00;60556.56;5034486;28;45283;-75
2024/01/19 05:01:39;;;;;;;;;64.50;51.50;;;;;-144.62;100.00;60556.56;5035968;27;45250;-75
2024/01/19 05:04:04;;;;;;;;;70.00;56.00;;;;;-144.62;100.00;60556.56;5035743;28;45440;-75
2024/01/19 05:06:29;;;;;;;;;68.25;54.00;;;;;-144.62;100.00;60556.56;5028565;28;45247;-75
2024/01/19 05:08:55;;;;;;;;;67.00;50.75;;;;;-144.62;100.00;60556.56;5036400;28;45546;-75
2024/01/19 05:11:21;;;;;;;;;76.25;60.00;;;;;-144.62;100.00;60556.56;5035687;28;45306;-75
2024/01/19 05:13:46;;;;;;;;;73.25;55.00;;;;;-144.62;100.00;60556.56;5042314;28;49861;-75
2024/01/19 05:16:11;;;;;;;;;70.50;54.75;;;;;-144.62;100.00;60556.56;5035865;28;45366;-75
2024/01/19 05:18:38;;;;;;;;;64.75;54.75;;;;;-144.62;100.00;60556.56;5037173;28;45525;-75
2024/01/19 05:21:04;;;;;;;;;70.00;54.25;;;;;-144.62;100.00;60556.56;5029162;28;45372;-75
2024/01/19 05:23:29;;;;;;;;;69.50;57.00;;;;;-144.62;100.00;60556.56;5035149;28;46959;-75
2024/01/19 05:25:55;;;;;;;;;70.50;57.00;;;;;-144.62;100.00;60556.56;5034885;28;45502;-75
2024/01/19 05:28:20;;;;;;;;;71.50;56.75;;;;;-144.62;100.00;60556.56;5038129;28;45353;-75
2024/01/19 05:30:45;;;;;;;;;67.50;53.00;;;;;-144.62;100.00;60556.56;5029711;28;45308;-75
2024/01/19 05:33:11;;;;;;;;;63.50;54.00;;;;;-144.62;100.00;60556.56;5034153;28;47167;-75
2024/01/19 05:35:36;;;;;;;;;65.25;54.75;;;;;-144.62;100.00;60556.56;5044397;28;61775;-75
2024/01/19 05:38:01;;;;;;;;;62.00;53.75;;;;;-144.62;100.00;60556.56;5032404;28;45413;-75
2024/01/19 05:40:27;;;;;;;;;70.75;55.50;;;;;-144.62;100.00;60556.56;5037866;27;45458;-75
2024/01/19 05:42:52;;;;;;;;;69.75;51.75;;;;;-144.62;100.00;60556.56;5030697;27;46856;-76
2024/01/19 05:45:17;;;;;;;;;71.25;55.75;;;;;-144.62;100.00;60556.56;5038032;27;47759;-75
2024/01/19 05:47:43;;;;;;;;;67.00;55.75;;;;;-144.62;100.00;60556.56;5034117;28;45231;-75
2024/01/19 05:50:09;;;;;;;;;60.50;48.50;;;;;-144.62;100.00;60556.56;5035555;28;45394;-74
2024/01/19 05:52:34;;;;;;;;;74.00;59.25;;;;;-144.62;100.00;60556.56;5036287;28;45463;-74
2024/01/19 05:54:59;;;;;;;;;77.50;58.25;;;;;-144.62;100.00;60556.56;5032396;28;52211;-74
2024/01/19 05:57:25;;;;;;;;;58.00;47.50;;;;;-144.62;100.00;60556.56;5038118;27;45296;-75
2024/01/19 05:59:51;;;;;;;;;71.00;54.25;;;;;-144.62;100.00;60556.56;5036538;27;45546;-76
2024/01/19 06:02:16;;;;;;;;;49.75;38.50;;;;;-144.62;100.00;60556.56;5034775;28;45416;-75
2024/01/19 06:04:41;;;;;;;;;65.75;52.00;;;;;-144.62;100.00;60556.56;5034326;28;45453;-74
2024/01/19 06:07:07;;;;;;;;;69.00;50.75;;;;;-144.62;100.00;60556.56;5035493;27;46311;-74
2024/01/19 06:09:32;;;;;;;;;63.25;52.00;;;;;-144.62;100.00;60556.56;5037119;28;45258;-73
2024/01/19 06:11:58;;;;;;;;;68.75;52.50;;;;;-144.62;100.00;60556.56;5036404;28;47050;-75
2024/01/19 06:14:23;;;;;;;;;65.00;51.75;;;;;-144.62;100.00;60556.56;5036443;27;45444;-76
2024/01/19 06:16:49;;;;;;;;;57.25;47.50;;;;;-144.62;100.00;60556.56;5036427;28;45390;-75
2024/01/19 06:19:15;;;;;;;;;65.50;51.50;;;;;-144.62;100.00;60556.56;5038295;28;45334;-75
2024/01/19 06:21:46;;;;;;;;;66.75;54.25;;;;;-144.62;100.00;60556.56;5032086;28;45313;-75
2024/01/19 06:24:16;;;;;;;;;67.25;51.75;;;;;-144.62;100.00;60556.56;5034070;28;45657;-75
2024/01/19 06:26:45;;;;;;;;;64.50;50.25;;;;;-144.62;100.00;60556.56;5029666;27;45319;-76
2024/01/19 06:29:11;;;;;;;;;73.25;58.25;;;;;-144.62;100.00;60556.56;5035185;27;45405;-75
2024/01/19 06:31:46;;;;;;;;;65.25;52.75;;;;;-144.62;100.00;60556.56;5029578;28;45413;-75
2024/01/19 06:34:12;;;;;;;;;66.00;55.00;;;;;-144.62;100.00;60556.56;5025770;28;45926;-75
2024/01/19 06:36:38;;;;;;;;;66.75;56.25;;;;;-144.62;100.00;60556.56;5029380;28;45430;-75
2024/01/19 06:39:04;;;;;;;;;74.50;54.50;;;;;-144.62;100.00;60556.56;5037079;28;45651;-76
2024/01/19 06:41:33;;;;;;;;;58.75;50.75;;;;;-144.62;100.00;60556.56;5029222;28;47128;-76
2024/01/19 06:43:58;;;;;;;;;57.50;47.75;;;;;-144.62;100.00;60556.56;5037420;28;45406;-77
2024/01/19 06:46:23;;;;;;;;;65.00;52.00;;;;;-144.62;100.00;60556.56;5030424;28;49256;-75
2024/01/19 06:48:49;;;;;;;;;54.25;50.50;;;;;-144.62;100.00;60556.56;5039071;28;45397;-75
2024/01/19 06:51:19;;;;;;;;;53.00;47.75;;;;;-144.62;100.00;60556.56;5030298;28;48023;-75
2024/01/19 06:53:44;;;;;;;;;68.00;53.00;;;;;-144.62;100.00;60556.56;5037766;28;45385;-75
2024/01/19 06:56:09;;;;;;;;;67.25;50.25;;;;;-144.62;100.00;60556.56;5035098;27;45402;-75
2024/01/19 06:58:35;;;;;;;;;69.50;52.25;;;;;-144.62;100.00;60556.56;5039623;28;45710;-76
2024/01/19 07:01:00;;;;;;;;;67.75;54.00;;;;;-144.62;100.00;60556.56;5032231;28;45498;-76
2024/01/19 07:03:25;;;;;;;;;61.25;48.00;;;;;-144.62;100.00;60556.56;5039728;28;45542;-76
2024/01/19 07:05:51;;;;;;;;;69.50;51.00;;;;;-144.62;100.00;60556.56;5032325;28;45344;-76
2024/01/19 07:08:17;;;;;;;;;59.25;49.00;;;;;-144.62;100.00;60556.56;5039014;28;45595;-75
2024/01/19 07:10:42;;;;;;;;;67.75;51.00;;;;;-144.62;100.00;60556.56;5027944;28;45596;-76
2024/01/19 07:13:07;;;;;;;;;65.75;53.75;;;;;-144.62;100.00;60556.56;5040415;28;45357;-75
2024/01/19 07:15:33;;;;;;;;;59.25;49.00;;;;;-144.62;100.00;60556.56;5029043;28;45308;-77
2024/01/19 07:17:58;;;;;;;;;59.75;50.00;;;;;-144.62;100.00;60556.56;5039227;28;45328;-75
2024/01/19 07:20:23;;;;;;;;;60.75;51.75;;;;;-144.62;100.00;60556.56;5041859;28;47219;-76
2024/01/19 07:22:51;;;;;;;;;62.50;52.25;;;;;-144.62;100.00;60556.56;5027815;28;45302;-76
2024/01/19 07:25:17;;;;;;;;;66.25;51.50;;;;;-144.62;100.00;60556.56;5033448;28;45537;-76
2024/01/19 07:27:42;;;;;;;;;73.00;54.25;;;;;-144.62;100.00;60556.56;5042018;28;45558;-76
2024/01/19 07:30:08;;;;;;;;;71.50;54.75;;;;;-144.62;100.00;60556.56;5029828;28;46999;-77
2024/01/19 07:32:33;;;;;;;;;66.75;52.50;;;;;-144.62;100.00;60556.56;5028608;28;46072;-74
2024/01/19 07:34:58;;;;;;;;;65.75;52.50;;;;;-144.62;100.00;60556.56;5036508;28;45264;-78
2024/01/19 07:37:23;;;;;;;;;73.50;58.25;;;;;-144.62;100.00;60556.56;5030250;28;45410;-76
2024/01/19 07:39:49;;;;;;;;;59.00;44.50;;;;;-144.62;100.00;60556.56;5033590;28;46280;-76
2024/01/19 07:42:14;;;;;;;;;59.50;48.25;;;;;-144.62;100.00;60556.56;5030899;28;45250;-76
2024/01/19 07:44:39;;;;;;;;;66.00;55.75;;;;;-144.62;100.00;60556.56;5037853;28;45473;-76
2024/01/19 07:47:05;;;;;;;;;66.75;51.00;;;;;-144.62;100.00;60556.56;5033884;28;45410;-76
2024/01/19 07:49:30;;;;;;;;;56.25;44.75;;;;;-144.62;100.00;60556.56;5031159;28;46275;-76
2024/01/19 07:51:55;;;;;;;;;62.50;51.25;;;;;-144.62;100.00;60556.56;5049409;28;55175;-76
2024/01/19 07:54:21;;;;;;;;;64.75;49.75;;;;;-144.62;100.00;60556.56;5038781;27;46772;-77
2024/01/19 07:56:46;;;;;;;;;69.00;56.00;;;;;-144.62;100.00;60556.56;5035597;27;45541;-76
2024/01/19 07:59:12;;;;;;;;;78.00;60.00;;;;;-144.62;100.00;60556.56;5035818;28;45547;-75
2024/01/19 08:01:38;;;;;;;;;74.00;56.75;;;;;-144.62;100.00;60556.56;5052844;27;45308;-75
2024/01/19 08:04:04;;;;;;;;;72.75;58.25;;;;;-144.62;100.00;60556.56;5035667;28;45269;-76
2024/01/19 08:06:29;;;;;;;;;74.50;57.00;;;;;-144.62;100.00;60556.56;5030862;28;45446;-76
2024/01/19 08:08:54;;;;;;;;;73.00;55.00;;;;;-144.62;100.00;60556.56;5037932;27;47882;-76
2024/01/19 08:11:20;;;;;;;;;78.00;59.25;;;;;-144.62;100.00;60556.56;5054284;28;55320;-76
2024/01/19 08:13:45;;;;;;;;;69.25;54.00;;;;;-144.62;100.00;60556.56;5037615;28;45320;-76
2024/01/19 08:16:11;;;;;;;;;69.00;56.25;;;;;-144.62;100.00;60556.56;5030481;28;45236;-77
2024/01/19 08:18:36;;;;;;;;;70.50;59.25;;;;;-144.62;100.00;60556.56;5037664;28;46125;-75
2024/01/19 08:21:03;;;;;;;;;72.25;58.25;;;;;-144.62;100.00;60556.56;5034919;28;45361;-75
2024/01/19 08:23:32;;;;;;;;;82.25;66.25;;;;;-144.62;100.00;60556.56;5037170;28;45339;-75
2024/01/19 08:25:57;;;;;;;;;77.25;60.25;;;;;-144.62;100.00;60556.56;5036942;28;45549;-74
2024/01/19 08:28:22;;;;;;;;;72.75;56.50;;;;;-144.62;100.00;60556.56;5035632;28;48039;-74
2024/01/19 08:30:48;;;;;;;;;70.00;56.50;;;;;-144.62;100.00;60556.56;5038580;28;45296;-74
2024/01/19 08:33:14;;;;;;;;;64.75;53.75;;;;;-144.62;100.00;60556.56;5039431;27;45233;-73
2024/01/19 08:35:39;;;;;;;;;78.50;58.25;;;;;-144.62;100.00;60556.56;5033104;27;45627;-75
2024/01/19 08:38:04;;;;;;;;;76.50;56.25;;;;;-144.62;100.00;60556.56;5034180;28;45496;-75
2024/01/19 08:40:30;;;;;;;;;71.00;58.75;;;;;-144.62;100.00;60556.56;5036852;28;45163;-75
2024/01/19 08:42:56;;;;;;;;;78.50;60.75;;;;;-144.62;100.00;60556.56;5034416;28;45224;-75
2024/01/19 08:45:21;;;;;;;;;73.25;57.50;;;;;-144.62;100.00;60556.56;5038139;28;45529;-75
2024/01/19 08:47:48;;;;;;;;;65.75;52.00;;;;;-144.62;100.00;60556.56;5034243;28;46420;-76
2024/01/19 08:50:14;;;;;;;;;80.50;62.25;;;;;-144.62;100.00;60556.56;5034776;27;45502;-74
2024/01/19 08:52:39;;;;;;;;;76.00;58.50;;;;;-144.62;100.00;60556.56;5036316;28;45320;-74
2024/01/19 08:55:05;;;;;;;;;82.00;61.50;;;;;-144.62;100.00;60556.56;5037897;28;45328;-75
2024/01/19 08:57:33;;;;;;;;;77.50;59.75;;;;;-144.62;100.00;60556.56;5035389;27;46916;-75
2024/01/19 08:59:59;;;;;;;;;88.50;65.50;;;;;-144.62;100.00;60556.56;5034713;28;45363;-75
2024/01/19 09:02:24;;;;;;;;;82.25;63.25;;;;;-144.62;100.00;60556.56;5038141;28;45378;-75
2024/01/19 09:04:50;;;;;;;;;76.00;58.75;;;;;-144.62;100.00;60556.56;5030517;28;46476;-75
2024/01/19 09:07:15;;;;;;;;;80.50;64.50;;;;;-144.62;100.00;60556.56;5033608;28;45369;-75
2024/01/19 09:09:40;;;;;;;;;70.00;58.25;;;;;-144.62;100.00;60556.56;5032401;28;45326;-77
2024/01/19 09:12:07;;;;;;;;;73.25;61.75;;;;;-144.62;100.00;60556.56;5031803;28;45349;-73
2024/01/19 09:14:32;;;;;;;;;81.50;64.75;;;;;-144.62;100.00;60556.56;5039711;28;45529;-74
2024/01/19 09:16:58;;;;;;;;;85.50;66.75;;;;;-144.62;100.00;60556.56;5039640;27;47664;-76
2024/01/19 09:19:24;;;;;;;;;78.50;60.50;;;;;-144.62;100.00;60556.56;5036601;28;45545;-75
2024/01/19 09:21:50;;;;;;;;;83.75;66.75;;;;;-144.62;100.00;60556.56;5041958;28;45316;-75
2024/01/19 09:24:16;;;;;;;;;83.25;64.50;;;;;-144.62;100.00;60556.56;5052143;28;45559;-74
2024/01/19 09:26:42;;;;;;;;;79.50;63.50;;;;;-144.62;100.00;60556.56;5030739;28;45740;-74
2024/01/19 09:29:10;;;;;;;;;84.00;67.25;;;;;-144.62;100.00;60556.56;5037499;28;52611;-74
2024/01/19 09:31:45;;;;;;;;;86.75;66.50;;;;;-144.62;100.00;60556.56;5031179;28;45352;-74
2024/01/19 09:34:10;;;;;;;;;78.25;61.25;;;;;-144.62;100.00;60556.56;5043749;28;45598;-75
2024/01/19 09:36:38;;;;;;;;;76.25;60.25;;;;;-144.62;100.00;60556.56;5033861;28;46341;-75
2024/01/19 09:39:03;;;;;;;;;85.00;65.25;;;;;-144.62;100.00;60556.56;5038830;28;45307;-74
2024/01/19 09:41:39;;;;;;;;;84.50;63.25;;;;;-144.62;100.00;60556.56;5033987;28;45929;-75
2024/01/19 09:44:09;;;;;;;;;80.25;65.75;;;;;-144.62;100.00;60556.56;5039073;27;45394;-74
2024/01/19 09:46:50;;;;;;;;;78.25;61.00;;;;;-144.62;100.00;60556.56;5035206;27;46500;-74
2024/01/19 09:49:46;;;;;;;;;74.00;59.50;;;;;-144.62;100.00;60556.56;5036467;28;45383;-74
2024/01/19 09:52:42;;;;;;;;;76.50;62.75;;;;;-144.62;100.00;60556.56;5036054;28;45341;-73
2024/01/19 09:55:11;;;;;;;;;72.00;61.00;;;;;-144.62;100.00;60556.56;5034748;27;45345;-75
2024/01/19 09:57:44;;;;;;;;;75.50;63.50;;;;;-144.62;100.00;60556.56;5093069;27;47580;-75
2024/01/19 10:00:11;;;;;;;;;81.00;63.25;;;;;-144.62;100.00;60556.56;5032094;28;45513;-74
2024/01/19 10:02:36;;;;;;;;;77.75;63.50;;;;;-144.62;100.00;60556.56;5039813;28;45425;-75
2024/01/19 10:05:02;;;;;;;;;83.50;64.75;;;;;-144.62;100.00;60556.56;5036359;28;45897;-74
2024/01/19 10:07:29;;;;;;;;;77.50;60.25;;;;;-144.62;100.00;60556.56;5036445;28;47282;-74
2024/01/19 10:09:55;;;;;;;;;77.50;61.75;;;;;-144.62;100.00;60556.56;5033487;28;45462;-74
2024/01/19 10:12:24;;;;;;;;;88.00;65.75;;;;;-144.62;100.00;60556.56;5037303;28;45364;-75
2024/01/19 10:14:49;;;;;;;;;69.50;54.50;;;;;-144.62;100.00;60556.56;5037063;28;45276;-74
2024/01/19 10:17:16;;;;;;;;;76.00;62.75;;;;;-144.62;100.00;60556.56;5037360;28;45592;-74
2024/01/19 10:19:42;;;;;;;;;66.75;51.00;;;;;-144.62;100.00;60556.56;5039285;28;45379;-74
2024/01/19 10:22:37;;;;;;;;;75.75;61.75;;;;;-144.62;100.00;60556.56;5039674;28;45411;-75
2024/01/19 10:25:20;;;;;;;;;80.50;65.00;;;;;-144.62;100.00;60556.56;5049300;27;45314;-74
2024/01/19 10:27:47;;;;;;;;;87.00;62.00;;;;;-144.62;100.00;60556.56;5055998;28;47830;-74
2024/01/19 10:30:24;;;;;;;;;78.75;62.00;;;;;-144.62;100.00;60556.56;5038280;28;45281;-73
2024/01/19 10:32:51;;;;;;;;;81.00;63.25;;;;;-144.62;100.00;60556.56;5032285;28;45416;-74
2024/01/19 10:35:23;;;;;;;;;75.00;62.25;;;;;-144.62;100.00;60556.56;5034639;28;45447;-74
2024/01/19 10:37:49;;;;;;;;;77.25;61.00;;;;;-144.62;100.00;60556.56;5033161;27;45325;-74
2024/01/19 10:40:28;;;;;;;;;69.75;58.00;;;;;-144.62;100.00;60556.56;5034472;27;45313;-74
2024/01/19 10:42:56;;;;;;;;;78.25;64.75;;;;;-144.62;100.00;60556.56;5041219;28;45384;-73
2024/01/19 10:45:30;;;;;;;;;82.75;64.00;;;;;-144.62;100.00;60556.56;5034544;28;45330;-75
2024/01/19 10:47:58;;;;;;;;;92.25;68.75;;;;;-144.62;100.00;60556.56;5035826;28;45676;-75
2024/01/19 10:50:26;;;;;;;;;86.00;66.75;;;;;-144.62;100.00;60556.56;5033937;27;45347;-75